createdAt,value
2017-06-11T00:00:21.157Z,4.10
2017-06-11T00:02:48.647Z,3.50
2017-06-11T00:05:16.139Z,4.40
2017-06-11T00:07:43.644Z,4.33
2017-06-11T00:10:11.128Z,3.83
2017-06-11T00:12:38.610Z,4.33
2017-06-11T00:15:06.090Z,4.50
2017-06-11T00:17:33.587Z,4.90
2017-06-11T00:20:01.087Z,5.17
2017-06-11T00:22:28.582Z,4.80
2017-06-11T00:24:56.083Z,5.30
2017-06-11T00:27:23.654Z,4.80
2017-06-11T00:29:51.911Z,4.20
2017-06-11T00:32:19.358Z,4.60
2017-06-11T00:34:46.853Z,5.93
2017-06-11T00:37:14.342Z,5.00
2017-06-11T00:39:41.784Z,4.63
2017-06-11T00:42:09.291Z,5.35
2017-06-11T00:44:36.792Z,5.20
2017-06-11T00:47:04.304Z,5.62
2017-06-11T00:49:31.783Z,5.00
2017-06-11T00:52:00.018Z,4.62
2017-06-11T00:54:27.477Z,4.60
2017-06-11T00:56:54.948Z,4.57
2017-06-11T00:59:22.401Z,5.80
2017-06-11T01:01:49.868Z,5.00
2017-06-11T01:04:18.046Z,5.60
2017-06-11T01:06:45.544Z,4.90
2017-06-11T01:09:13.005Z,4.28
2017-06-11T01:11:42.121Z,4.57
2017-06-11T01:14:09.635Z,5.32
2017-06-11T01:16:37.096Z,4.75
2017-06-11T01:19:05.369Z,4.35
2017-06-11T01:21:32.860Z,6.03
2017-06-11T01:24:00.369Z,6.15
2017-06-11T01:26:27.858Z,5.55
2017-06-11T01:28:56.081Z,6.75
2017-06-11T01:31:23.549Z,5.65
2017-06-11T01:33:51.004Z,7.00
2017-06-11T01:36:18.465Z,5.53
2017-06-11T01:38:45.929Z,6.15
2017-06-11T01:41:13.388Z,6.82
2017-06-11T01:43:40.853Z,7.00
2017-06-11T01:46:08.309Z,5.62
2017-06-11T01:48:35.768Z,5.25
2017-06-11T01:51:03.225Z,6.25
2017-06-11T01:53:30.694Z,5.05
2017-06-11T01:55:58.147Z,4.93
2017-06-11T01:58:25.613Z,4.35
2017-06-11T02:00:53.060Z,4.62
2017-06-11T02:03:20.543Z,3.95
2017-06-11T02:05:47.999Z,4.80
2017-06-11T02:08:16.229Z,4.32
2017-06-11T02:10:43.677Z,4.07
2017-06-11T02:13:11.147Z,3.65
2017-06-11T02:15:38.609Z,5.37
2017-06-11T02:18:06.101Z,5.15
2017-06-11T02:20:33.567Z,6.03
2017-06-11T02:23:01.797Z,5.15
2017-06-11T02:25:29.254Z,4.72
2017-06-11T02:27:56.712Z,5.00
2017-06-11T02:30:24.174Z,5.32
2017-06-11T02:32:51.625Z,4.72
2017-06-11T02:35:19.092Z,4.50
2017-06-11T02:37:46.549Z,5.05
2017-06-11T02:40:14.001Z,4.43
2017-06-11T02:42:41.461Z,4.93
2017-06-11T02:45:09.018Z,5.32
2017-06-11T02:47:36.451Z,4.80
2017-06-11T02:50:03.913Z,4.85
2017-06-11T02:52:31.372Z,4.50
2017-06-11T02:54:58.824Z,5.20
2017-06-11T02:57:26.290Z,4.07
2017-06-11T02:59:53.752Z,5.28
2017-06-11T03:02:21.225Z,3.78
2017-06-11T03:04:48.684Z,4.03
2017-06-11T03:07:16.140Z,5.20
2017-06-11T03:09:43.600Z,5.15
2017-06-11T03:12:11.976Z,4.85
2017-06-11T03:14:39.432Z,5.37
2017-06-11T03:17:06.892Z,6.35
2017-06-11T03:19:34.356Z,4.70
2017-06-11T03:22:01.824Z,4.45
2017-06-11T03:24:29.282Z,6.20
2017-06-11T03:26:56.740Z,5.95
2017-06-11T03:29:24.209Z,4.90
2017-06-11T03:31:51.668Z,6.40
2017-06-11T03:34:19.124Z,6.40
2017-06-11T03:36:46.583Z,5.90
2017-06-11T03:39:14.045Z,6.00
2017-06-11T03:41:42.976Z,4.87
2017-06-11T03:44:10.438Z,5.18
2017-06-11T03:46:37.888Z,6.15
2017-06-11T03:49:05.348Z,5.90
2017-06-11T03:51:32.800Z,6.50
2017-06-11T03:54:01.033Z,5.53
2017-06-11T03:56:28.492Z,4.50
2017-06-11T03:58:55.957Z,5.37
2017-06-11T04:01:23.411Z,4.75
2017-06-11T04:03:50.859Z,5.65
2017-06-11T04:06:18.315Z,4.80
2017-06-11T04:08:45.775Z,5.25
2017-06-11T04:11:13.233Z,5.20
2017-06-11T04:13:40.691Z,5.15
2017-06-11T04:16:08.136Z,5.15
2017-06-11T04:18:35.577Z,4.90
2017-06-11T04:21:03.017Z,3.72
2017-06-11T04:23:30.484Z,4.25
2017-06-11T04:25:57.933Z,3.72
2017-06-11T04:28:25.396Z,4.00
2017-06-11T04:30:52.860Z,4.97
2017-06-11T04:33:20.320Z,4.18
2017-06-11T04:35:47.765Z,4.95
2017-06-11T04:38:15.225Z,3.90
2017-06-11T04:40:42.687Z,4.43
2017-06-11T04:43:10.152Z,4.10
2017-06-11T04:45:37.612Z,4.80
2017-06-11T04:48:05.081Z,4.55
2017-06-11T04:50:32.541Z,4.70
2017-06-11T04:52:59.993Z,4.17
2017-06-11T04:55:27.462Z,3.57
2017-06-11T04:57:54.933Z,4.43
2017-06-11T05:00:22.393Z,4.37
2017-06-11T05:02:49.849Z,4.47
2017-06-11T05:05:17.327Z,4.90
2017-06-11T05:07:44.793Z,5.03
2017-06-11T05:10:12.249Z,4.67
2017-06-11T05:12:39.705Z,4.80
2017-06-11T05:15:07.154Z,5.13
2017-06-11T05:17:34.613Z,4.73
2017-06-11T05:20:02.069Z,4.50
2017-06-11T05:22:29.577Z,4.57
2017-06-11T05:24:57.027Z,3.83
2017-06-11T05:27:24.520Z,4.10
2017-06-11T05:29:51.965Z,4.60
2017-06-11T05:32:19.389Z,4.60
2017-06-11T05:34:47.593Z,3.67
2017-06-11T05:37:15.044Z,4.50
2017-06-11T05:39:42.500Z,4.43
2017-06-11T05:42:09.955Z,3.93
2017-06-11T05:44:37.397Z,4.40
2017-06-11T05:47:05.616Z,4.43
2017-06-11T05:49:33.073Z,4.40
2017-06-11T05:52:00.532Z,4.40
2017-06-11T05:54:27.984Z,4.47
2017-06-11T05:56:55.448Z,4.20
2017-06-11T05:59:22.893Z,4.30
2017-06-11T06:01:50.369Z,4.13
2017-06-11T06:04:17.824Z,4.83
2017-06-11T06:06:45.281Z,3.80
2017-06-11T06:09:12.736Z,4.30
2017-06-11T06:11:40.190Z,3.90
2017-06-11T06:14:07.652Z,4.97
2017-06-11T06:16:35.106Z,4.20
2017-06-11T06:19:02.565Z,4.00
2017-06-11T06:21:30.022Z,3.70
2017-06-11T06:23:57.468Z,4.37
2017-06-11T06:26:24.924Z,4.43
2017-06-11T06:28:52.379Z,4.10
2017-06-11T06:31:19.836Z,3.57
2017-06-11T06:33:47.287Z,4.00
2017-06-11T06:36:14.745Z,4.50
2017-06-11T06:38:42.196Z,4.40
2017-06-11T06:41:09.647Z,4.30
2017-06-11T06:43:37.101Z,4.00
2017-06-11T06:46:04.544Z,3.70
2017-06-11T06:48:32.001Z,4.03
2017-06-11T06:50:59.455Z,4.00
2017-06-11T06:53:26.952Z,3.90
2017-06-11T06:55:54.396Z,4.10
2017-06-11T06:58:22.628Z,3.40
2017-06-11T07:00:50.087Z,3.90
2017-06-11T07:03:17.540Z,3.90
2017-06-11T07:05:44.996Z,3.67
2017-06-11T07:08:12.461Z,3.43
2017-06-11T07:10:39.916Z,4.00
2017-06-11T07:13:07.372Z,3.90
2017-06-11T07:15:34.833Z,4.27
2017-06-11T07:18:02.290Z,3.90
2017-06-11T07:20:29.741Z,4.13
2017-06-11T07:22:57.192Z,3.90
2017-06-11T07:25:24.645Z,3.70
2017-06-11T07:27:52.111Z,3.53
2017-06-11T07:30:19.568Z,3.70
2017-06-11T07:32:47.023Z,3.60
2017-06-11T07:35:14.513Z,3.73
2017-06-11T07:37:41.973Z,3.73
2017-06-11T07:40:09.520Z,4.20
2017-06-11T07:42:36.980Z,3.30
2017-06-11T07:45:04.416Z,3.53
2017-06-11T07:47:31.877Z,3.67
2017-06-11T07:49:59.435Z,3.90
2017-06-11T07:52:26.877Z,3.77
2017-06-11T07:54:54.325Z,3.53
2017-06-11T07:57:21.777Z,3.00
2017-06-11T07:59:50.088Z,3.83
2017-06-11T08:02:17.519Z,3.40
2017-06-11T08:04:44.973Z,3.50
2017-06-11T08:07:13.181Z,3.00
2017-06-11T08:09:40.637Z,3.73
2017-06-11T08:12:08.091Z,3.67
2017-06-11T08:14:35.528Z,3.37
2017-06-11T08:17:02.980Z,3.40
2017-06-11T08:19:30.420Z,3.30
2017-06-11T08:21:58.636Z,3.30
2017-06-11T08:24:26.077Z,3.73
2017-06-11T08:26:53.584Z,3.37
2017-06-11T08:29:21.034Z,3.77
2017-06-11T08:31:48.528Z,3.40
2017-06-11T08:34:15.985Z,2.83
2017-06-11T08:36:43.422Z,3.30
2017-06-11T08:39:10.881Z,3.23
2017-06-11T08:41:38.329Z,3.40
2017-06-11T08:44:05.780Z,3.83
2017-06-11T08:46:33.237Z,3.23
2017-06-11T08:49:00.692Z,2.80
2017-06-11T08:51:28.144Z,2.70
2017-06-11T08:53:55.594Z,3.00
2017-06-11T08:56:23.052Z,3.27
2017-06-11T08:58:50.513Z,3.00
2017-06-11T09:01:18.002Z,2.70
2017-06-11T09:03:45.440Z,3.00
2017-06-11T09:06:12.896Z,2.80
2017-06-11T09:08:40.341Z,2.90
2017-06-11T09:11:07.800Z,2.70
2017-06-11T09:13:35.257Z,2.87
2017-06-11T09:16:02.710Z,2.97
2017-06-11T09:18:30.169Z,2.90
2017-06-11T09:20:57.621Z,3.30
2017-06-11T09:23:25.075Z,2.60
2017-06-11T09:25:52.532Z,2.57
2017-06-11T09:28:19.985Z,2.80
2017-06-11T09:30:47.424Z,2.90
2017-06-11T09:33:15.644Z,2.60
2017-06-11T09:35:43.156Z,2.87
2017-06-11T09:38:11.369Z,2.93
2017-06-11T09:40:38.832Z,3.00
2017-06-11T09:43:06.288Z,2.97
2017-06-11T09:45:33.776Z,2.97
2017-06-11T09:48:01.204Z,3.10
2017-06-11T09:50:28.658Z,3.27
2017-06-11T09:52:56.121Z,2.80
2017-06-11T09:55:23.573Z,2.90
2017-06-11T09:57:51.024Z,3.20
2017-06-11T10:00:18.469Z,3.70
2017-06-11T10:02:45.920Z,4.23
2017-06-11T10:05:14.129Z,3.53
2017-06-11T10:07:41.592Z,3.27
2017-06-11T10:10:09.044Z,2.93
2017-06-11T10:12:36.497Z,2.80
2017-06-11T10:15:03.940Z,3.10
2017-06-11T10:17:31.392Z,2.73
2017-06-11T10:19:58.849Z,3.37
2017-06-11T10:22:26.296Z,2.60
2017-06-11T10:24:54.516Z,2.53
2017-06-11T10:27:21.968Z,2.73
2017-06-11T10:29:49.425Z,2.87
2017-06-11T10:32:16.876Z,2.70
2017-06-11T10:34:44.324Z,3.00
2017-06-11T10:37:11.777Z,3.00
2017-06-11T10:39:39.229Z,3.30
2017-06-11T10:42:06.680Z,3.33
2017-06-11T10:44:34.128Z,3.07
2017-06-11T10:47:02.348Z,3.23
2017-06-11T10:49:29.788Z,3.30
2017-06-11T10:51:57.241Z,3.60
2017-06-11T10:54:24.745Z,3.00
2017-06-11T10:56:52.717Z,2.93
2017-06-11T10:59:20.161Z,2.90
2017-06-11T11:01:47.614Z,3.10
2017-06-11T11:04:15.084Z,3.00
2017-06-11T11:06:42.524Z,3.13
2017-06-11T11:09:09.979Z,2.70
2017-06-11T11:11:37.416Z,2.60
2017-06-11T11:14:04.865Z,2.93
2017-06-11T11:16:33.072Z,3.27
2017-06-11T11:19:00.529Z,3.33
2017-06-11T11:21:28.056Z,2.90
2017-06-11T11:23:55.512Z,3.10
2017-06-11T11:26:23.724Z,2.90
2017-06-11T11:28:51.185Z,2.80
2017-06-11T11:31:18.648Z,2.50
2017-06-11T11:33:46.096Z,2.90
2017-06-11T11:36:13.548Z,3.10
2017-06-11T11:38:41.012Z,2.30
2017-06-11T11:41:08.469Z,2.47
2017-06-11T11:43:35.928Z,2.70
2017-06-11T11:46:03.376Z,2.20
2017-06-11T11:48:30.841Z,2.50
2017-06-11T11:50:58.296Z,2.37
2017-06-11T11:53:25.753Z,2.40
2017-06-11T11:55:53.229Z,2.40
2017-06-11T11:58:20.680Z,2.00
2017-06-11T12:00:48.132Z,2.70
2017-06-11T12:03:15.589Z,2.47
2017-06-11T12:05:43.048Z,2.20
2017-06-11T12:08:10.495Z,2.37
2017-06-11T12:10:37.939Z,2.50
2017-06-11T12:13:05.400Z,2.70
2017-06-11T12:15:32.857Z,2.70
2017-06-11T12:18:00.308Z,2.33
2017-06-11T12:20:28.523Z,2.53
2017-06-11T12:22:55.993Z,2.80
2017-06-11T12:25:23.432Z,2.60
2017-06-11T12:27:50.888Z,3.00
2017-06-11T12:30:18.335Z,3.00
2017-06-11T12:32:45.796Z,2.87
2017-06-11T12:35:13.244Z,3.13
2017-06-11T12:37:40.707Z,3.40
2017-06-11T12:40:08.148Z,3.47
2017-06-11T12:42:35.600Z,2.83
2017-06-11T12:45:03.820Z,2.53
2017-06-11T12:47:31.261Z,2.67
2017-06-11T12:49:58.711Z,2.43
2017-06-11T12:52:26.160Z,2.33
2017-06-11T12:54:54.373Z,2.93
2017-06-11T12:57:21.820Z,3.57
2017-06-11T12:59:49.267Z,3.40
2017-06-11T13:02:16.712Z,3.83
2017-06-11T13:04:44.164Z,3.17
2017-06-11T13:07:11.611Z,3.67
2017-06-11T13:09:39.056Z,3.63
2017-06-11T13:12:07.280Z,3.10
2017-06-11T13:14:34.733Z,3.10
2017-06-11T13:17:02.190Z,3.43
2017-06-11T13:19:29.641Z,3.40
2017-06-11T13:21:57.084Z,3.40
2017-06-11T13:24:24.537Z,3.70
2017-06-11T13:26:53.430Z,3.10
2017-06-11T13:29:21.644Z,3.90
2017-06-11T13:31:49.097Z,2.97
2017-06-11T13:34:16.552Z,2.97
2017-06-11T13:36:43.994Z,4.10
2017-06-11T13:39:11.444Z,3.80
2017-06-11T13:41:38.897Z,6.77
2017-06-11T13:44:07.117Z,3.70
2017-06-11T13:46:34.572Z,4.03
2017-06-11T13:49:02.017Z,3.53
2017-06-11T13:51:29.476Z,3.80
2017-06-11T13:53:56.973Z,2.97
2017-06-11T13:56:24.429Z,3.20
2017-06-11T13:58:51.881Z,3.27
2017-06-11T14:01:19.336Z,2.97
2017-06-11T14:03:46.789Z,3.30
2017-06-11T14:06:14.237Z,3.27
2017-06-11T14:08:41.707Z,2.70
2017-06-11T14:11:09.147Z,3.10
2017-06-11T14:13:36.600Z,3.20
2017-06-11T14:16:04.048Z,2.90
2017-06-11T14:18:31.502Z,3.23
2017-06-11T14:20:58.959Z,2.87
2017-06-11T14:23:26.412Z,3.20
2017-06-11T14:25:53.864Z,2.70
2017-06-11T14:28:21.319Z,2.63
2017-06-11T14:30:48.768Z,2.70
2017-06-11T14:33:16.222Z,3.13
2017-06-11T14:35:43.665Z,2.87
2017-06-11T14:38:11.108Z,3.00
2017-06-11T14:40:38.556Z,2.90
2017-06-11T14:43:06.005Z,2.40
2017-06-11T14:45:33.461Z,3.20
2017-06-11T14:48:00.920Z,3.10
2017-06-11T14:50:28.364Z,2.80
2017-06-11T14:52:55.821Z,2.90
2017-06-11T14:55:23.273Z,3.00
2017-06-11T14:57:50.735Z,2.67
2017-06-11T15:00:18.172Z,3.13
2017-06-11T15:02:45.629Z,3.60
2017-06-11T15:05:13.070Z,3.50
2017-06-11T15:07:40.514Z,3.17
2017-06-11T15:10:07.956Z,3.20
2017-06-11T15:12:35.412Z,3.10
2017-06-11T15:15:03.662Z,3.00
2017-06-11T15:17:31.104Z,3.00
2017-06-11T15:19:58.556Z,2.80
2017-06-11T15:22:25.998Z,2.60
2017-06-11T15:24:53.448Z,3.07
2017-06-11T15:27:20.903Z,3.20
2017-06-11T15:29:48.360Z,2.90
2017-06-11T15:32:15.801Z,2.63
2017-06-11T15:34:43.252Z,3.00
2017-06-11T15:37:10.704Z,3.33
2017-06-11T15:39:38.148Z,3.17
2017-06-11T15:42:05.614Z,3.23
2017-06-11T15:44:33.052Z,3.13
2017-06-11T15:47:00.505Z,3.40
2017-06-11T15:49:27.935Z,3.13
2017-06-11T15:51:55.391Z,3.20
2017-06-11T15:54:22.839Z,3.73
2017-06-11T15:56:50.288Z,3.33
2017-06-11T15:59:17.824Z,3.07
2017-06-11T16:01:45.269Z,3.20
2017-06-11T16:04:12.716Z,3.47
2017-06-11T16:06:40.169Z,3.40
2017-06-11T16:09:07.620Z,4.20
2017-06-11T16:11:35.065Z,3.20
2017-06-11T16:14:02.520Z,3.40
2017-06-11T16:16:29.967Z,3.60
2017-06-11T16:18:57.419Z,3.27
2017-06-11T16:21:24.868Z,3.03
2017-06-11T16:23:52.294Z,3.40
2017-06-11T16:26:19.748Z,3.27
2017-06-11T16:28:47.213Z,3.60
2017-06-11T16:31:14.664Z,2.80
2017-06-11T16:33:42.109Z,3.30
2017-06-11T16:36:09.561Z,2.77
2017-06-11T16:38:37.011Z,3.30
2017-06-11T16:41:04.460Z,2.70
2017-06-11T16:43:31.908Z,3.30
2017-06-11T16:45:59.371Z,2.97
2017-06-11T16:48:27.576Z,3.30
2017-06-11T16:50:55.026Z,2.93
2017-06-11T16:53:22.488Z,2.47
2017-06-11T16:55:49.940Z,2.57
2017-06-11T16:58:17.404Z,3.43
2017-06-11T17:00:44.840Z,3.60
2017-06-11T17:03:12.284Z,4.33
2017-06-11T17:05:40.506Z,3.50
2017-06-11T17:08:07.949Z,3.90
2017-06-11T17:10:35.397Z,4.40
2017-06-11T17:13:02.844Z,4.37
2017-06-11T17:15:30.300Z,4.20
2017-06-11T17:17:57.762Z,4.47
2017-06-11T17:20:25.204Z,4.10
2017-06-11T17:22:53.417Z,3.47
2017-06-11T17:25:20.870Z,3.57
2017-06-11T17:27:48.316Z,3.77
2017-06-11T17:30:15.760Z,4.17
2017-06-11T17:32:43.212Z,4.23
2017-06-11T17:35:10.657Z,8.90
2017-06-11T17:37:38.112Z,4.70
2017-06-11T17:40:05.575Z,3.90
2017-06-11T17:42:33.020Z,4.60
2017-06-11T17:45:00.480Z,4.40
2017-06-11T17:47:27.932Z,4.10
2017-06-11T17:49:55.384Z,3.43
2017-06-11T17:52:22.825Z,3.80
2017-06-11T17:54:50.275Z,3.50
2017-06-11T17:57:17.729Z,4.00
2017-06-11T17:59:45.183Z,3.00
2017-06-11T18:02:12.619Z,3.63
2017-06-11T18:04:40.073Z,3.40
2017-06-11T18:07:07.524Z,3.20
2017-06-11T18:09:34.968Z,4.03
2017-06-11T18:12:03.185Z,3.30
2017-06-11T18:14:30.628Z,3.77
2017-06-11T18:16:58.087Z,4.20
2017-06-11T18:19:25.527Z,3.50
2017-06-11T18:21:52.984Z,3.37
2017-06-11T18:24:21.197Z,4.13
2017-06-11T18:26:48.657Z,3.90
2017-06-11T18:29:16.113Z,3.70
2017-06-11T18:31:43.556Z,3.60
2017-06-11T18:34:10.999Z,3.30
2017-06-11T18:36:38.452Z,3.27
2017-06-11T18:39:06.672Z,3.53
2017-06-11T18:41:34.120Z,3.77
2017-06-11T18:44:01.578Z,3.17
2017-06-11T18:46:29.024Z,3.03
2017-06-11T18:48:56.469Z,3.30
2017-06-11T18:51:23.916Z,3.60
2017-06-11T18:53:52.129Z,3.67
2017-06-11T18:56:19.591Z,3.57
2017-06-11T18:58:47.048Z,3.43
2017-06-11T19:01:14.505Z,4.03
2017-06-11T19:03:41.960Z,3.33
2017-06-11T19:06:09.417Z,4.20
2017-06-11T19:08:36.875Z,4.00
2017-06-11T19:11:04.317Z,3.87
2017-06-11T19:13:31.764Z,4.13
2017-06-11T19:15:59.205Z,3.80
2017-06-11T19:18:26.672Z,3.60
2017-06-11T19:20:54.879Z,4.03
2017-06-11T19:23:22.333Z,3.97
2017-06-11T19:25:49.785Z,4.60
2017-06-11T19:28:17.292Z,5.30
2017-06-11T19:30:44.740Z,4.70
2017-06-11T19:33:12.196Z,4.23
2017-06-11T19:35:39.654Z,4.53
2017-06-11T19:38:07.096Z,4.03
2017-06-11T19:40:34.548Z,4.30
2017-06-11T19:43:01.995Z,4.03
2017-06-11T19:45:29.454Z,4.53
2017-06-11T19:47:56.908Z,3.80
2017-06-11T19:50:24.341Z,4.70
2017-06-11T19:52:52.559Z,3.70
2017-06-11T19:55:20.008Z,3.80
2017-06-11T19:57:47.492Z,4.27
2017-06-11T20:00:14.931Z,5.20
2017-06-11T20:02:42.437Z,4.37
2017-06-11T20:05:10.660Z,4.67
2017-06-11T20:07:38.116Z,4.47
2017-06-11T20:10:05.569Z,3.90
2017-06-11T20:12:33.011Z,4.30
2017-06-11T20:15:00.463Z,4.40
2017-06-11T20:17:27.910Z,5.43
2017-06-11T20:19:56.123Z,4.73
2017-06-11T20:22:23.577Z,4.87
2017-06-11T20:24:51.016Z,5.70
2017-06-11T20:27:18.464Z,4.93
2017-06-11T20:29:46.680Z,4.80
2017-06-11T20:32:14.165Z,4.73
2017-06-11T20:34:41.596Z,5.33
2017-06-11T20:37:09.045Z,4.93
2017-06-11T20:39:36.507Z,5.00
2017-06-11T20:42:03.956Z,4.50
2017-06-11T20:44:31.420Z,4.30
2017-06-11T20:46:58.876Z,5.47
2017-06-11T20:49:26.330Z,4.73
2017-06-11T20:51:53.772Z,3.60
2017-06-11T20:54:21.224Z,5.10
2017-06-11T20:56:48.676Z,4.40
2017-06-11T20:59:16.896Z,4.77
2017-06-11T21:01:44.337Z,4.90
2017-06-11T21:04:11.795Z,4.40
2017-06-11T21:06:39.248Z,4.93
2017-06-11T21:09:06.700Z,5.30
2017-06-11T21:11:34.149Z,5.77
2017-06-11T21:14:01.616Z,4.90
2017-06-11T21:16:29.820Z,5.27
2017-06-11T21:18:57.276Z,5.23
2017-06-11T21:21:24.724Z,5.00
2017-06-11T21:23:52.164Z,3.93
2017-06-11T21:26:19.616Z,4.40
2017-06-11T21:28:47.064Z,5.10
2017-06-11T21:31:15.280Z,4.97
2017-06-11T21:33:42.730Z,4.70
2017-06-11T21:36:10.171Z,4.43
2017-06-11T21:38:37.620Z,4.23
2017-06-11T21:41:05.060Z,4.90
2017-06-11T21:43:33.279Z,4.40
2017-06-11T21:46:00.720Z,4.40
2017-06-11T21:48:28.200Z,4.67
2017-06-11T21:50:55.636Z,5.03
2017-06-11T21:53:23.092Z,5.97
2017-06-11T21:55:50.609Z,4.70
2017-06-11T21:58:18.064Z,5.00
2017-06-11T22:00:45.508Z,5.27
2017-06-11T22:03:12.960Z,4.80
2017-06-11T22:05:40.413Z,4.57
2017-06-11T22:08:07.870Z,4.87
2017-06-11T22:10:35.315Z,4.87
2017-06-11T22:13:02.769Z,4.00
2017-06-11T22:15:30.208Z,4.63
2017-06-11T22:17:57.661Z,4.70
2017-06-11T22:20:25.877Z,4.43
2017-06-11T22:22:53.336Z,4.40
2017-06-11T22:25:20.792Z,5.37
2017-06-11T22:27:48.245Z,5.10
2017-06-11T22:30:15.700Z,5.20
2017-06-11T22:32:43.156Z,5.70
2017-06-11T22:35:10.599Z,5.43
2017-06-11T22:37:38.052Z,5.00
2017-06-11T22:40:05.504Z,5.00
2017-06-11T22:42:32.956Z,5.23
2017-06-11T22:45:00.416Z,5.27
2017-06-11T22:47:27.861Z,6.20
2017-06-11T22:49:56.088Z,5.60
2017-06-11T22:52:23.527Z,5.80
2017-06-11T22:54:50.992Z,5.50
2017-06-11T22:57:18.453Z,5.43
2017-06-11T22:59:45.910Z,5.20
2017-06-11T23:02:13.362Z,6.33
2017-06-11T23:04:40.804Z,6.13
2017-06-11T23:07:08.257Z,5.33
2017-06-11T23:09:35.713Z,6.03
2017-06-11T23:12:03.163Z,5.37
2017-06-11T23:14:31.388Z,5.40
2017-06-11T23:16:58.840Z,5.50
2017-06-11T23:19:26.293Z,4.23
2017-06-11T23:21:53.745Z,4.10
2017-06-11T23:24:21.196Z,3.53
2017-06-11T23:26:48.657Z,3.40
2017-06-11T23:29:16.104Z,3.20
2017-06-11T23:31:43.551Z,3.30
2017-06-11T23:34:11.004Z,3.00
2017-06-11T23:36:39.212Z,3.53
2017-06-11T23:39:06.667Z,3.07
2017-06-11T23:41:34.150Z,2.97
2017-06-11T23:44:01.584Z,3.80
2017-06-11T23:46:29.045Z,4.20
2017-06-11T23:48:56.481Z,3.57
2017-06-11T23:51:23.922Z,3.37
2017-06-11T23:53:52.122Z,3.30
2017-06-11T23:56:19.564Z,2.80
2017-06-11T23:58:47.049Z,8.10
